createdAt,value
2019-05-17T00:00:42.526Z,6.10
2019-05-17T00:03:17.062Z,5.87
2019-05-17T00:05:48.633Z,6.43
2019-05-17T00:08:30.963Z,5.93
2019-05-17T00:10:53.114Z,6.43
2019-05-17T00:13:26.744Z,6.13
2019-05-17T00:15:57.947Z,5.87
2019-05-17T00:18:29.324Z,6.23
2019-05-17T00:21:00.892Z,6.57
2019-05-17T00:23:32.528Z,6.10
2019-05-17T00:26:04.089Z,6.20
2019-05-17T00:28:37.449Z,6.77
2019-05-17T00:31:08.786Z,6.43
2019-05-17T00:33:40.224Z,6.67
2019-05-17T00:36:11.490Z,6.67
2019-05-17T00:38:48.217Z,6.70
2019-05-17T00:41:17.620Z,7.10
2019-05-17T00:43:49.416Z,7.67
2019-05-17T00:46:20.721Z,7.43
2019-05-17T00:48:52.089Z,7.43
2019-05-17T00:51:27.247Z,7.23
2019-05-17T00:53:58.605Z,7.37
2019-05-17T00:56:30.197Z,7.87
2019-05-17T00:59:01.617Z,7.30
2019-05-17T01:01:33.893Z,7.73
2019-05-17T01:04:06.916Z,7.83
2019-05-17T01:06:38.568Z,7.83
2019-05-17T01:09:09.788Z,7.07
2019-05-17T01:11:41.116Z,7.77
2019-05-17T01:14:12.624Z,7.80
2019-05-17T01:16:44.120Z,7.70
2019-05-17T01:19:16.437Z,7.67
2019-05-17T01:21:48.378Z,7.67
2019-05-17T01:24:19.839Z,7.77
2019-05-17T01:26:51.602Z,8.33
2019-05-17T01:29:23.120Z,8.13
2019-05-17T01:31:56.956Z,8.73
2019-05-17T01:34:27.793Z,8.33
2019-05-17T01:36:59.197Z,8.10
2019-05-17T01:39:33.474Z,8.53
2019-05-17T01:42:04.065Z,7.70
2019-05-17T01:44:36.721Z,7.30
2019-05-17T01:47:08.426Z,7.50
2019-05-17T01:49:39.836Z,7.20
2019-05-17T01:52:11.120Z,7.00
2019-05-17T01:54:42.422Z,6.53
2019-05-17T01:57:13.866Z,6.43
2019-05-17T01:59:46.670Z,6.57
2019-05-17T02:02:27.011Z,6.60
2019-05-17T02:04:58.384Z,6.00
2019-05-17T02:07:29.774Z,5.47
2019-05-17T02:10:01.048Z,5.77
2019-05-17T02:12:32.213Z,5.43
2019-05-17T02:15:06.976Z,5.60
2019-05-17T02:17:38.741Z,5.13
2019-05-17T02:20:10.685Z,5.00
2019-05-17T02:22:42.109Z,5.57
2019-05-17T02:25:13.977Z,5.40
2019-05-17T02:27:45.257Z,5.40
2019-05-17T02:30:17.309Z,5.67
2019-05-17T02:32:48.791Z,5.50
2019-05-17T02:35:22.878Z,5.07
2019-05-17T02:37:53.638Z,5.50
2019-05-17T02:40:25.110Z,5.80
2019-05-17T02:42:56.572Z,6.03
2019-05-17T02:45:28.052Z,6.73
2019-05-17T02:48:03.261Z,6.50
2019-05-17T02:50:33.424Z,5.47
2019-05-17T02:53:05.526Z,5.03
2019-05-17T02:55:37.169Z,5.67
2019-05-17T02:58:08.664Z,6.27
2019-05-17T03:00:43.980Z,6.47
2019-05-17T03:03:13.750Z,7.07
2019-05-17T03:05:45.313Z,7.50
2019-05-17T03:08:16.825Z,6.83
2019-05-17T03:10:48.586Z,6.63
2019-05-17T03:13:23.191Z,6.47
2019-05-17T03:15:53.297Z,6.37
2019-05-17T03:18:24.663Z,5.80
2019-05-17T03:20:56.164Z,5.47
2019-05-17T03:23:27.870Z,6.40
2019-05-17T03:25:59.177Z,6.43
2019-05-17T03:28:33.566Z,6.27
2019-05-17T03:31:08.221Z,6.13
2019-05-17T03:33:37.431Z,6.27
2019-05-17T03:36:08.845Z,6.20
2019-05-17T03:38:43.093Z,4.97
2019-05-17T03:41:23.395Z,6.20
2019-05-17T03:43:47.096Z,6.07
2019-05-17T03:46:18.576Z,6.33
2019-05-17T03:48:52.885Z,5.90
2019-05-17T03:51:23.464Z,6.37
2019-05-17T03:53:55.059Z,6.80
2019-05-17T03:56:26.608Z,8.57
2019-05-17T03:58:57.922Z,7.53
2019-05-17T04:01:32.586Z,7.70
2019-05-17T04:04:03.186Z,7.20
2019-05-17T04:06:34.639Z,7.93
2019-05-17T04:09:06.713Z,7.83
2019-05-17T04:11:38.575Z,7.40
2019-05-17T04:14:13.628Z,7.60
2019-05-17T04:16:43.392Z,7.80
2019-05-17T04:19:14.643Z,7.20
2019-05-17T04:21:45.821Z,6.80
2019-05-17T04:24:17.463Z,7.00
2019-05-17T04:26:52.022Z,7.13
2019-05-17T04:29:22.800Z,8.00
2019-05-17T04:31:54.722Z,8.10
2019-05-17T04:34:26.098Z,6.90
2019-05-17T04:36:57.746Z,6.40
2019-05-17T04:39:29.017Z,6.43
2019-05-17T04:42:03.738Z,6.50
2019-05-17T04:44:35.423Z,6.63
2019-05-17T04:47:06.710Z,7.00
2019-05-17T04:49:38.155Z,6.90
2019-05-17T04:52:09.662Z,6.17
2019-05-17T04:54:42.538Z,6.33
2019-05-17T04:57:14.126Z,6.30
2019-05-17T04:59:45.653Z,6.20
2019-05-17T05:02:19.075Z,7.00
2019-05-17T05:04:53.174Z,6.80
2019-05-17T05:07:24.588Z,6.63
2019-05-17T05:09:55.813Z,6.40
2019-05-17T05:12:28.003Z,5.40
2019-05-17T05:14:59.613Z,5.30
2019-05-17T05:17:32.837Z,6.03
2019-05-17T05:20:05.630Z,5.63
2019-05-17T05:22:37.286Z,5.60
2019-05-17T05:25:08.672Z,5.70
2019-05-17T05:27:42.283Z,5.60
2019-05-17T05:30:13.478Z,5.63
2019-05-17T05:32:44.782Z,5.17
2019-05-17T05:35:16.179Z,4.90
2019-05-17T05:37:47.545Z,5.00
2019-05-17T05:40:18.897Z,5.77
2019-05-17T05:42:51.572Z,5.47
2019-05-17T05:45:23.641Z,5.13
2019-05-17T05:47:55.459Z,5.90
2019-05-17T05:50:27.121Z,5.60
2019-05-17T05:52:58.448Z,5.17
2019-05-17T05:55:32.182Z,6.07
2019-05-17T05:58:03.267Z,5.87
2019-05-17T06:00:34.832Z,6.50
2019-05-17T06:03:06.307Z,6.50
2019-05-17T06:05:37.713Z,6.47
2019-05-17T06:08:09.099Z,7.00
2019-05-17T06:10:42.519Z,7.43
2019-05-17T06:13:14.025Z,7.40
2019-05-17T06:15:45.753Z,7.87
2019-05-17T06:18:17.449Z,8.37
2019-05-17T06:20:49.013Z,8.77
2019-05-17T06:23:20.424Z,8.30
2019-05-17T06:25:52.228Z,8.13
2019-05-17T06:28:24.166Z,7.80
2019-05-17T06:30:55.735Z,7.87
2019-05-17T06:33:31.061Z,7.90
2019-05-17T06:36:02.768Z,8.53
2019-05-17T06:38:34.198Z,7.90
2019-05-17T06:41:05.919Z,8.27
2019-05-17T06:43:38.549Z,7.50
2019-05-17T06:46:12.238Z,8.40
2019-05-17T06:48:43.531Z,7.23
2019-05-17T06:51:15.125Z,7.87
2019-05-17T06:53:46.424Z,7.30
2019-05-17T06:56:18.956Z,6.73
2019-05-17T06:58:50.415Z,6.37
2019-05-17T07:01:21.847Z,6.60
2019-05-17T07:03:53.262Z,5.50
2019-05-17T07:06:26.449Z,5.60
2019-05-17T07:09:00.841Z,5.50
2019-05-17T07:11:31.934Z,4.90
2019-05-17T07:14:03.423Z,5.23
2019-05-17T07:16:34.757Z,5.70
2019-05-17T07:19:06.505Z,5.17
2019-05-17T07:21:40.202Z,5.67
2019-05-17T07:24:11.278Z,6.10
2019-05-17T07:26:42.872Z,5.47
2019-05-17T07:29:14.180Z,5.40
2019-05-17T07:31:45.896Z,5.17
2019-05-17T07:34:17.165Z,4.90
2019-05-17T07:36:50.379Z,4.77
2019-05-17T07:39:22.881Z,4.50
2019-05-17T07:41:54.581Z,5.23
2019-05-17T07:44:25.963Z,4.70
2019-05-17T07:46:57.399Z,4.90
2019-05-17T07:49:29.498Z,4.80
2019-05-17T07:52:01.149Z,4.33
2019-05-17T07:54:32.471Z,4.40
2019-05-17T07:57:03.938Z,3.50
2019-05-17T07:59:35.299Z,4.00
2019-05-17T08:02:06.938Z,3.80
2019-05-17T08:04:40.687Z,3.70
2019-05-17T08:07:11.661Z,3.87
2019-05-17T08:09:43.294Z,3.90
2019-05-17T08:12:15.190Z,3.93
2019-05-17T08:14:46.487Z,3.83
2019-05-17T08:17:19.828Z,3.77
2019-05-17T08:19:51.315Z,5.23
2019-05-17T08:22:22.748Z,4.10
2019-05-17T08:24:54.209Z,3.87
2019-05-17T08:27:25.942Z,5.20
2019-05-17T08:29:59.733Z,5.60
2019-05-17T08:32:31.631Z,5.83
2019-05-17T08:35:04.205Z,4.50
2019-05-17T08:37:36.074Z,3.77
2019-05-17T08:40:10.496Z,4.27
2019-05-17T08:42:41.106Z,4.67
2019-05-17T08:45:12.671Z,4.50
2019-05-17T08:47:44.293Z,4.47
2019-05-17T08:50:15.959Z,5.53
2019-05-17T08:52:49.551Z,5.40
2019-05-17T08:55:21.101Z,5.20
2019-05-17T08:57:53.543Z,5.17
2019-05-17T09:00:25.929Z,5.10
2019-05-17T09:02:59.948Z,5.20
2019-05-17T09:05:30.991Z,4.70
2019-05-17T09:08:02.675Z,4.97
2019-05-17T09:10:34.223Z,4.83
2019-05-17T09:13:05.781Z,4.80
2019-05-17T09:15:39.905Z,4.83
2019-05-17T09:18:11.300Z,4.73
2019-05-17T09:20:42.689Z,4.83
2019-05-17T09:23:14.324Z,4.80
2019-05-17T09:25:46.584Z,4.83
2019-05-17T09:28:20.328Z,5.50
2019-05-17T09:30:51.617Z,5.10
2019-05-17T09:33:23.150Z,5.60
2019-05-17T09:35:54.534Z,5.80
2019-05-17T09:38:25.757Z,6.40
2019-05-17T09:40:59.719Z,6.43
2019-05-17T09:43:30.581Z,7.30
2019-05-17T09:46:02.404Z,6.63
2019-05-17T09:48:34.062Z,6.67
2019-05-17T09:51:05.566Z,6.27
2019-05-17T09:53:36.971Z,6.47
2019-05-17T09:56:09.920Z,6.70
2019-05-17T09:58:41.523Z,6.53
2019-05-17T10:01:12.978Z,6.57
2019-05-17T10:03:44.596Z,6.90
2019-05-17T10:06:16.170Z,6.63
2019-05-17T10:08:49.464Z,5.83
2019-05-17T10:11:21.296Z,6.27
2019-05-17T10:13:52.852Z,6.37
2019-05-17T10:16:24.981Z,5.47
2019-05-17T10:18:56.715Z,5.40
2019-05-17T10:21:30.385Z,5.33
2019-05-17T10:24:01.751Z,5.97
2019-05-17T10:26:33.259Z,5.90
2019-05-17T10:29:05.010Z,5.30
2019-05-17T10:31:36.432Z,5.17
2019-05-17T10:34:09.694Z,5.60
2019-05-17T10:36:41.445Z,5.23
2019-05-17T10:39:12.919Z,4.40
2019-05-17T10:41:44.141Z,4.50
2019-05-17T10:44:15.513Z,4.50
2019-05-17T10:46:46.853Z,4.97
2019-05-17T10:49:20.159Z,4.40
2019-05-17T10:51:51.296Z,5.40
2019-05-17T10:54:22.997Z,4.90
2019-05-17T10:56:54.606Z,5.37
2019-05-17T10:59:27.150Z,4.80
2019-05-17T11:01:59.670Z,5.07
2019-05-17T11:04:31.142Z,4.50
2019-05-17T11:07:04.250Z,4.43
2019-05-17T11:09:36.399Z,3.90
2019-05-17T11:12:08.114Z,4.23
2019-05-17T11:14:50.781Z,4.27
2019-05-17T11:17:12.813Z,4.00
2019-05-17T11:19:44.316Z,3.80
2019-05-17T11:22:15.912Z,2.87
2019-05-17T11:24:47.393Z,3.17
2019-05-17T11:27:18.737Z,3.53
2019-05-17T11:29:50.123Z,3.80
2019-05-17T11:32:22.787Z,4.07
2019-05-17T11:34:54.288Z,3.67
2019-05-17T11:37:25.619Z,4.20
2019-05-17T11:39:57.075Z,4.60
2019-05-17T11:42:28.429Z,3.90
2019-05-17T11:45:00.103Z,3.30
2019-05-17T11:47:31.673Z,4.20
2019-05-17T11:50:05.157Z,4.00
2019-05-17T11:52:36.442Z,4.60
2019-05-17T11:55:07.814Z,4.73
2019-05-17T11:57:39.140Z,4.30
2019-05-17T12:00:12.458Z,4.17
2019-05-17T12:02:43.734Z,4.50
2019-05-17T12:05:15.345Z,4.30
2019-05-17T12:07:46.816Z,3.90
2019-05-17T12:10:18.360Z,3.97
2019-05-17T12:12:49.806Z,4.07
2019-05-17T12:15:21.197Z,4.10
2019-05-17T12:17:52.426Z,3.67
2019-05-17T12:20:23.945Z,3.80
2019-05-17T12:22:55.393Z,4.40
2019-05-17T12:25:26.906Z,4.53
2019-05-17T12:27:58.206Z,4.10
2019-05-17T12:30:29.661Z,4.63
2019-05-17T12:33:01.175Z,4.70
2019-05-17T12:35:32.685Z,4.63
2019-05-17T12:38:04.329Z,4.90
2019-05-17T12:40:35.535Z,4.50
2019-05-17T12:43:06.917Z,4.73
2019-05-17T12:45:38.466Z,4.57
2019-05-17T12:48:09.772Z,4.30
2019-05-17T12:50:41.200Z,4.60
2019-05-17T12:53:13.712Z,4.60
2019-05-17T12:55:45.159Z,4.10
2019-05-17T12:58:16.483Z,3.70
2019-05-17T13:00:47.723Z,4.13
2019-05-17T13:03:19.110Z,4.43
2019-05-17T13:05:50.637Z,4.40
2019-05-17T13:08:23.053Z,5.03
2019-05-17T13:10:54.887Z,4.47
2019-05-17T13:13:26.261Z,4.77
2019-05-17T13:15:57.599Z,5.00
2019-05-17T13:18:28.801Z,4.63
2019-05-17T13:21:00.120Z,4.80
2019-05-17T13:23:31.443Z,4.23
2019-05-17T13:26:02.963Z,5.17
2019-05-17T13:28:34.349Z,4.90
2019-05-17T13:31:05.656Z,4.70
2019-05-17T13:33:37.140Z,5.70
2019-05-17T13:36:08.575Z,5.57
2019-05-17T13:38:40.144Z,6.17
2019-05-17T13:41:11.579Z,3.93
2019-05-17T13:43:42.964Z,3.70
2019-05-17T13:46:14.502Z,2.87
2019-05-17T13:48:45.821Z,2.90
2019-05-17T13:51:17.186Z,2.77
2019-05-17T13:53:48.477Z,3.80
2019-05-17T13:56:20.401Z,2.93
2019-05-17T13:58:51.936Z,3.77
2019-05-17T14:01:23.242Z,3.07
2019-05-17T14:03:54.527Z,3.43
2019-05-17T14:06:26.006Z,3.00
2019-05-17T14:08:57.208Z,3.10
2019-05-17T14:11:28.525Z,3.33
2019-05-17T14:14:00.009Z,3.47
2019-05-17T14:16:34.279Z,2.93
2019-05-17T14:19:04.392Z,2.73
2019-05-17T14:21:35.725Z,3.50
2019-05-17T14:24:07.182Z,2.53
2019-05-17T14:26:38.705Z,2.40
2019-05-17T14:29:10.112Z,2.17
2019-05-17T14:31:41.542Z,2.10
2019-05-17T14:34:12.948Z,2.40
2019-05-17T14:36:44.368Z,2.30
2019-05-17T14:39:15.768Z,2.43
2019-05-17T14:41:47.050Z,2.10
2019-05-17T14:44:18.403Z,2.47
2019-05-17T14:46:49.724Z,3.00
2019-05-17T14:49:21.116Z,2.80
2019-05-17T14:51:52.599Z,3.03
2019-05-17T14:54:23.965Z,2.93
2019-05-17T14:56:55.335Z,3.13
2019-05-17T14:59:26.633Z,3.50
2019-05-17T15:01:57.814Z,3.40
2019-05-17T15:04:29.169Z,3.30
2019-05-17T15:07:00.351Z,3.37
2019-05-17T15:09:31.694Z,3.37
2019-05-17T15:12:03.042Z,3.60
2019-05-17T15:14:34.290Z,3.50
2019-05-17T15:17:05.619Z,3.20
2019-05-17T15:19:37.071Z,3.50
2019-05-17T15:22:08.501Z,3.50
2019-05-17T15:24:40.050Z,3.13
2019-05-17T15:27:11.509Z,3.47
2019-05-17T15:29:55.997Z,3.40
2019-05-17T15:32:28.218Z,3.13
2019-05-17T15:34:59.968Z,3.30
2019-05-17T15:37:31.504Z,2.97
2019-05-17T15:40:06.244Z,2.50
2019-05-17T15:42:44.011Z,5.40
2019-05-17T15:45:10.876Z,2.43
2019-05-17T15:47:42.568Z,2.70
2019-05-17T15:50:14.405Z,3.40
2019-05-17T15:52:47.459Z,2.87
2019-05-17T15:55:18.877Z,2.50
2019-05-17T15:57:51.035Z,2.47
2019-05-17T16:00:22.574Z,3.10
2019-05-17T16:02:54.028Z,2.40
2019-05-17T16:05:26.558Z,2.20
2019-05-17T16:07:57.874Z,2.57
2019-05-17T16:10:29.338Z,2.70
2019-05-17T16:13:02.741Z,2.53
2019-05-17T16:15:34.021Z,2.70
2019-05-17T16:18:05.360Z,2.60
2019-05-17T16:20:36.639Z,2.43
2019-05-17T16:23:07.876Z,2.60
2019-05-17T16:25:39.773Z,6.30
2019-05-17T16:28:11.420Z,2.93
2019-05-17T16:30:42.887Z,2.83
2019-05-17T16:33:14.230Z,3.23
2019-05-17T16:35:45.647Z,3.93
2019-05-17T16:38:16.905Z,3.30
2019-05-17T16:40:48.548Z,3.10
2019-05-17T16:43:20.227Z,3.20
2019-05-17T16:45:52.062Z,3.20
2019-05-17T16:48:25.825Z,3.00
2019-05-17T16:50:57.119Z,3.00
2019-05-17T16:53:28.403Z,2.73
2019-05-17T16:56:00.789Z,3.10
2019-05-17T16:58:32.150Z,2.80
2019-05-17T17:01:03.868Z,3.20
2019-05-17T17:03:44.269Z,2.73
2019-05-17T17:06:10.473Z,3.27
2019-05-17T17:08:42.429Z,6.67
2019-05-17T17:11:13.900Z,8.43
2019-05-17T17:13:45.325Z,18.43
2019-05-17T17:16:16.770Z,11.97
2019-05-17T17:18:48.074Z,11.43
2019-05-17T17:21:19.458Z,5.80
2019-05-17T17:23:51.199Z,3.83
2019-05-17T17:26:22.885Z,3.07
2019-05-17T17:28:54.546Z,4.33
2019-05-17T17:31:25.974Z,4.23
2019-05-17T17:33:57.343Z,5.83
2019-05-17T17:36:28.943Z,11.13
2019-05-17T17:39:00.609Z,10.43
2019-05-17T17:41:32.250Z,8.57
2019-05-17T17:44:03.734Z,13.43
2019-05-17T17:46:35.295Z,11.17
2019-05-17T17:49:06.843Z,12.00
2019-05-17T17:51:38.281Z,16.33
2019-05-17T17:54:09.843Z,10.57
2019-05-17T17:56:41.500Z,5.13
2019-05-17T17:59:12.825Z,5.57
2019-05-17T18:01:44.608Z,4.80
2019-05-17T18:04:16.105Z,7.80
2019-05-17T18:06:47.300Z,6.73
2019-05-17T18:09:18.805Z,7.23
2019-05-17T18:11:50.819Z,6.80
2019-05-17T18:14:22.148Z,5.70
2019-05-17T18:16:53.505Z,6.20
2019-05-17T18:19:24.926Z,6.03
2019-05-17T18:21:56.534Z,4.97
2019-05-17T18:24:27.880Z,6.10
2019-05-17T18:26:59.585Z,5.50
2019-05-17T18:29:30.881Z,5.80
2019-05-17T18:32:02.054Z,5.97
2019-05-17T18:34:33.585Z,6.20
2019-05-17T18:37:06.094Z,8.57
2019-05-17T18:39:37.359Z,15.40
2019-05-17T18:42:09.107Z,13.70
2019-05-17T18:44:40.716Z,12.27
2019-05-17T18:47:12.064Z,12.67
2019-05-17T18:49:43.413Z,16.17
2019-05-17T18:52:14.642Z,15.47
2019-05-17T18:54:46.078Z,15.90
2019-05-17T18:57:17.543Z,14.87
2019-05-17T18:59:48.858Z,14.63
2019-05-17T19:02:20.276Z,13.67
2019-05-17T19:04:51.710Z,14.30
2019-05-17T19:07:23.377Z,13.03
2019-05-17T19:09:54.873Z,13.40
2019-05-17T19:12:27.663Z,14.60
2019-05-17T19:15:00.735Z,17.13
2019-05-17T19:17:32.078Z,15.50
2019-05-17T19:20:04.664Z,16.10
2019-05-17T19:22:35.948Z,13.93
2019-05-17T19:25:07.897Z,13.70
2019-05-17T19:27:39.414Z,14.03
2019-05-17T19:30:11.583Z,15.20
2019-05-17T19:32:43.197Z,15.47
2019-05-17T19:35:15.169Z,16.40
2019-05-17T19:37:46.414Z,21.93
2019-05-17T19:40:17.615Z,20.37
2019-05-17T19:42:49.011Z,18.83
2019-05-17T19:45:20.200Z,18.53
2019-05-17T19:47:51.768Z,23.27
2019-05-17T19:50:23.314Z,131.37
2019-05-17T19:52:54.817Z,54.23
2019-05-17T19:55:26.438Z,31.17
2019-05-17T19:57:57.875Z,42.33
2019-05-17T20:00:29.813Z,29.03
2019-05-17T20:03:01.574Z,33.03
2019-05-17T20:05:32.971Z,50.97
2019-05-17T20:08:04.488Z,66.20
2019-05-17T20:10:35.941Z,43.20
2019-05-17T20:13:07.288Z,43.40
2019-05-17T20:15:38.901Z,39.67
2019-05-17T20:18:10.316Z,30.30
2019-05-17T20:20:42.312Z,25.13
2019-05-17T20:23:14.359Z,34.57
2019-05-17T20:25:45.733Z,25.50
2019-05-17T20:28:17.229Z,22.43
2019-05-17T20:30:48.824Z,28.47
2019-05-17T20:33:20.147Z,28.37
2019-05-17T20:35:51.699Z,28.10
2019-05-17T20:38:23.412Z,46.17
2019-05-17T20:40:54.874Z,48.20
2019-05-17T20:43:26.344Z,31.60
2019-05-17T20:45:58.094Z,28.43
2019-05-17T20:48:29.358Z,26.10
2019-05-17T20:51:00.721Z,22.80
2019-05-17T20:53:32.509Z,20.37
2019-05-17T20:56:03.795Z,18.80
2019-05-17T20:58:35.629Z,18.53
2019-05-17T21:01:07.140Z,17.77
2019-05-17T21:03:38.524Z,16.83
2019-05-17T21:06:09.838Z,18.00
2019-05-17T21:08:45.995Z,16.73
2019-05-17T21:11:14.540Z,17.47
2019-05-17T21:13:46.194Z,16.30
2019-05-17T21:16:18.786Z,15.50
2019-05-17T21:18:50.541Z,15.73
2019-05-17T21:21:21.888Z,16.70
2019-05-17T21:23:53.520Z,17.00
2019-05-17T21:26:25.144Z,16.13
2019-05-17T21:28:56.725Z,14.80
2019-05-17T21:31:28.048Z,15.13
2019-05-17T21:33:59.548Z,16.13
2019-05-17T21:36:30.809Z,18.73
2019-05-17T21:39:04.029Z,17.53
2019-05-17T21:41:35.693Z,14.97
2019-05-17T21:44:07.253Z,14.87
2019-05-17T21:46:38.661Z,14.63
2019-05-17T21:49:10.450Z,14.47
2019-05-17T21:51:42.007Z,14.37
2019-05-17T21:54:13.462Z,13.93
2019-05-17T21:56:45.195Z,14.97
2019-05-17T21:59:16.821Z,15.00
2019-05-17T22:01:49.580Z,13.63
2019-05-17T22:04:20.939Z,13.90
2019-05-17T22:06:52.626Z,13.77
2019-05-17T22:09:24.283Z,13.73
2019-05-17T22:11:58.520Z,14.33
2019-05-17T22:14:30.008Z,15.10
2019-05-17T22:17:01.861Z,15.30
2019-05-17T22:19:33.557Z,15.83
2019-05-17T22:22:04.891Z,15.37
2019-05-17T22:24:36.298Z,17.63
2019-05-17T22:27:08.041Z,17.47
2019-05-17T22:29:39.526Z,17.23
2019-05-17T22:32:11.085Z,16.53
2019-05-17T22:34:42.545Z,15.53
2019-05-17T22:37:17.014Z,17.07
2019-05-17T22:39:47.477Z,16.33
2019-05-17T22:42:19.113Z,15.50
2019-05-17T22:44:50.661Z,15.70
2019-05-17T22:47:23.194Z,15.20
2019-05-17T22:49:54.669Z,16.00
2019-05-17T22:52:26.198Z,16.77
2019-05-17T22:54:57.510Z,16.87
2019-05-17T22:57:28.934Z,17.00
2019-05-17T23:00:00.249Z,16.33
2019-05-17T23:02:31.582Z,17.20
2019-05-17T23:05:03.786Z,17.83
2019-05-17T23:07:35.492Z,17.30
2019-05-17T23:10:07.034Z,18.83
2019-05-17T23:12:38.439Z,20.17
2019-05-17T23:15:09.816Z,18.03
2019-05-17T23:17:41.078Z,18.83
2019-05-17T23:20:12.677Z,18.27
2019-05-17T23:22:44.074Z,19.03
2019-05-17T23:25:15.599Z,18.80
2019-05-17T23:27:47.703Z,18.77
2019-05-17T23:30:19.021Z,17.90
2019-05-17T23:32:50.335Z,18.23
2019-05-17T23:35:21.746Z,18.37
2019-05-17T23:37:53.121Z,18.23
2019-05-17T23:40:24.684Z,16.93
2019-05-17T23:42:56.161Z,16.67
2019-05-17T23:45:27.724Z,17.80
2019-05-17T23:47:59.269Z,16.93
2019-05-17T23:50:30.567Z,16.53
2019-05-17T23:53:02.132Z,16.00
2019-05-17T23:55:33.544Z,15.83
2019-05-17T23:58:05.049Z,15.57
